sensor_id;sensor_type;location;lat;lon;timestamp;temperature;humidity
66119;DHT22;52912;48.564;9.302;2023-02-18T00:01:40;11.42;85.26
66119;DHT22;52912;48.564;9.302;2023-02-18T00:04:06;11.46;85.05
66119;DHT22;52912;48.564;9.302;2023-02-18T00:06:34;11.44;85.13
66119;DHT22;52912;48.564;9.302;2023-02-18T00:09:03;11.49;85.18
66119;DHT22;52912;48.564;9.302;2023-02-18T00:11:31;11.40;85.33
66119;DHT22;52912;48.564;9.302;2023-02-18T00:13:58;11.40;85.45
66119;DHT22;52912;48.564;9.302;2023-02-18T00:16:25;11.44;85.38
66119;DHT22;52912;48.564;9.302;2023-02-18T00:18:54;11.39;85.51
66119;DHT22;52912;48.564;9.302;2023-02-18T00:21:20;11.36;85.54
66119;DHT22;52912;48.564;9.302;2023-02-18T00:23:46;11.36;85.72
66119;DHT22;52912;48.564;9.302;2023-02-18T00:26:14;11.42;85.51
66119;DHT22;52912;48.564;9.302;2023-02-18T00:28:40;11.39;85.55
66119;DHT22;52912;48.564;9.302;2023-02-18T00:31:06;11.42;85.60
66119;DHT22;52912;48.564;9.302;2023-02-18T00:33:32;11.32;85.69
66119;DHT22;52912;48.564;9.302;2023-02-18T00:36:01;11.33;85.66
66119;DHT22;52912;48.564;9.302;2023-02-18T00:38:26;11.40;85.61
66119;DHT22;52912;48.564;9.302;2023-02-18T00:40:52;11.36;85.49
66119;DHT22;52912;48.564;9.302;2023-02-18T00:43:18;11.30;85.30
66119;DHT22;52912;48.564;9.302;2023-02-18T00:45:44;11.32;85.22
66119;DHT22;52912;48.564;9.302;2023-02-18T00:48:09;11.37;85.24
66119;DHT22;52912;48.564;9.302;2023-02-18T00:50:35;11.34;85.34
66119;DHT22;52912;48.564;9.302;2023-02-18T00:53:00;11.33;85.48
66119;DHT22;52912;48.564;9.302;2023-02-18T00:55:26;11.39;85.38
66119;DHT22;52912;48.564;9.302;2023-02-18T00:57:51;11.42;85.12
66119;DHT22;52912;48.564;9.302;2023-02-18T01:00:18;11.43;85.10
66119;DHT22;52912;48.564;9.302;2023-02-18T01:02:44;11.42;85.12
66119;DHT22;52912;48.564;9.302;2023-02-18T01:05:09;11.42;85.07
66119;DHT22;52912;48.564;9.302;2023-02-18T01:10:09;11.37;85.29
66119;DHT22;52912;48.564;9.302;2023-02-18T01:12:34;11.44;85.05
66119;DHT22;52912;48.564;9.302;2023-02-18T01:15:00;11.39;85.13
66119;DHT22;52912;48.564;9.302;2023-02-18T01:17:26;11.36;85.13
66119;DHT22;52912;48.564;9.302;2023-02-18T01:19:52;11.39;84.75
66119;DHT22;52912;48.564;9.302;2023-02-18T01:22:17;11.42;84.62
66119;DHT22;52912;48.564;9.302;2023-02-18T01:24:43;11.33;84.78
66119;DHT22;52912;48.564;9.302;2023-02-18T01:27:08;11.37;84.56
66119;DHT22;52912;48.564;9.302;2023-02-18T01:29:34;11.37;84.73
66119;DHT22;52912;48.564;9.302;2023-02-18T01:32:00;11.36;84.66
66119;DHT22;52912;48.564;9.302;2023-02-18T01:34:26;11.37;84.59
66119;DHT22;52912;48.564;9.302;2023-02-18T01:36:52;11.44;84.21
66119;DHT22;52912;48.564;9.302;2023-02-18T01:39:17;11.42;84.19
66119;DHT22;52912;48.564;9.302;2023-02-18T01:41:43;11.36;84.23
66119;DHT22;52912;48.564;9.302;2023-02-18T01:44:13;11.37;84.08
66119;DHT22;52912;48.564;9.302;2023-02-18T01:46:39;11.40;84.10
66119;DHT22;52912;48.564;9.302;2023-02-18T01:49:05;11.39;84.03
66119;DHT22;52912;48.564;9.302;2023-02-18T01:51:35;11.42;83.84
66119;DHT22;52912;48.564;9.302;2023-02-18T01:54:05;11.40;83.72
66119;DHT22;52912;48.564;9.302;2023-02-18T01:56:35;11.42;83.78
66119;DHT22;52912;48.564;9.302;2023-02-18T01:59:05;11.44;83.79
66119;DHT22;52912;48.564;9.302;2023-02-18T02:01:31;11.40;83.92
66119;DHT22;52912;48.564;9.302;2023-02-18T02:03:57;11.40;83.99
66119;DHT22;52912;48.564;9.302;2023-02-18T02:06:23;11.36;84.16
66119;DHT22;52912;48.564;9.302;2023-02-18T02:08:52;11.33;84.13
66119;DHT22;52912;48.564;9.302;2023-02-18T02:11:29;11.37;84.04
66119;DHT22;52912;48.564;9.302;2023-02-18T02:14:11;11.37;84.03
66119;DHT22;52912;48.564;9.302;2023-02-18T02:16:45;11.37;84.01
66119;DHT22;52912;48.564;9.302;2023-02-18T02:19:34;11.29;84.09
66119;DHT22;52912;48.564;9.302;2023-02-18T02:22:33;11.29;84.06
66119;DHT22;52912;48.564;9.302;2023-02-18T02:25:18;11.27;84.07
66119;DHT22;52912;48.564;9.302;2023-02-18T02:34:00;11.22;83.79
66119;DHT22;52912;48.564;9.302;2023-02-18T02:36:36;11.22;83.93
66119;DHT22;52912;48.564;9.302;2023-02-18T02:39:07;11.15;83.99
66119;DHT22;52912;48.564;9.302;2023-02-18T02:41:44;11.12;84.14
66119;DHT22;52912;48.564;9.302;2023-02-18T02:44:18;11.14;84.13
66119;DHT22;52912;48.564;9.302;2023-02-18T02:46:46;11.11;84.09
66119;DHT22;52912;48.564;9.302;2023-02-18T02:49:19;11.12;83.96
66119;DHT22;52912;48.564;9.302;2023-02-18T02:51:55;11.08;84.10
66119;DHT22;52912;48.564;9.302;2023-02-18T02:54:23;11.14;83.99
66119;DHT22;52912;48.564;9.302;2023-02-18T02:56:49;11.12;83.99
66119;DHT22;52912;48.564;9.302;2023-02-18T02:59:18;11.11;84.07
66119;DHT22;52912;48.564;9.302;2023-02-18T03:01:55;11.05;84.21
66119;DHT22;52912;48.564;9.302;2023-02-18T03:04:45;11.15;83.99
66119;DHT22;52912;48.564;9.302;2023-02-18T03:07:22;11.15;83.94
66119;DHT22;52912;48.564;9.302;2023-02-18T03:10:03;11.12;84.02
66119;DHT22;52912;48.564;9.302;2023-02-18T03:12:35;11.08;84.15
66119;DHT22;52912;48.564;9.302;2023-02-18T03:15:07;11.22;83.54
66119;DHT22;52912;48.564;9.302;2023-02-18T03:17:36;11.19;83.53
66119;DHT22;52912;48.564;9.302;2023-02-18T03:20:11;11.25;83.36
66119;DHT22;52912;48.564;9.302;2023-02-18T03:22:43;11.20;83.26
66119;DHT22;52912;48.564;9.302;2023-02-18T03:25:10;11.25;82.97
66119;DHT22;52912;48.564;9.302;2023-02-18T03:27:41;11.30;82.81
66119;DHT22;52912;48.564;9.302;2023-02-18T03:30:12;11.33;82.71
66119;DHT22;52912;48.564;9.302;2023-02-18T03:32:38;11.34;82.45
66119;DHT22;52912;48.564;9.302;2023-02-18T03:35:07;11.30;82.54
66119;DHT22;52912;48.564;9.302;2023-02-18T03:37:37;11.39;82.38
66119;DHT22;52912;48.564;9.302;2023-02-18T03:40:06;11.34;82.37
66119;DHT22;52912;48.564;9.302;2023-02-18T03:42:33;11.36;82.51
66119;DHT22;52912;48.564;9.302;2023-02-18T03:44:58;11.36;82.40
66119;DHT22;52912;48.564;9.302;2023-02-18T03:47:24;11.34;82.44
66119;DHT22;52912;48.564;9.302;2023-02-18T03:49:50;11.39;82.20
66119;DHT22;52912;48.564;9.302;2023-02-18T03:52:15;11.32;82.19
66119;DHT22;52912;48.564;9.302;2023-02-18T03:54:41;11.32;82.18
66119;DHT22;52912;48.564;9.302;2023-02-18T03:57:08;11.23;82.55
66119;DHT22;52912;48.564;9.302;2023-02-18T03:59:33;11.19;82.65
66119;DHT22;52912;48.564;9.302;2023-02-18T04:01:59;11.16;82.80
66119;DHT22;52912;48.564;9.302;2023-02-18T04:04:24;11.08;83.00
66119;DHT22;52912;48.564;9.302;2023-02-18T04:06:50;11.02;83.10
66119;DHT22;52912;48.564;9.302;2023-02-18T04:09:15;11.02;83.10
66119;DHT22;52912;48.564;9.302;2023-02-18T04:11:41;10.91;83.39
66119;DHT22;52912;48.564;9.302;2023-02-18T04:14:08;10.97;83.26
66119;DHT22;52912;48.564;9.302;2023-02-18T04:16:34;10.91;83.33
66119;DHT22;52912;48.564;9.302;2023-02-18T04:18:59;10.84;83.59
66119;DHT22;52912;48.564;9.302;2023-02-18T04:21:25;10.85;83.48
66119;DHT22;52912;48.564;9.302;2023-02-18T04:23:50;10.82;83.42
66119;DHT22;52912;48.564;9.302;2023-02-18T04:26:16;10.74;83.78
66119;DHT22;52912;48.564;9.302;2023-02-18T04:28:41;10.67;83.99
66119;DHT22;52912;48.564;9.302;2023-02-18T04:31:08;10.64;84.13
66119;DHT22;52912;48.564;9.302;2023-02-18T04:33:33;10.61;84.24
66119;DHT22;52912;48.564;9.302;2023-02-18T04:35:59;10.63;84.17
66119;DHT22;52912;48.564;9.302;2023-02-18T04:38:24;10.50;84.47
66119;DHT22;52912;48.564;9.302;2023-02-18T04:40:50;10.46;84.67
66119;DHT22;52912;48.564;9.302;2023-02-18T04:43:15;10.49;84.50
66119;DHT22;52912;48.564;9.302;2023-02-18T04:45:41;10.49;84.58
66119;DHT22;52912;48.564;9.302;2023-02-18T04:48:07;10.44;84.67
66119;DHT22;52912;48.564;9.302;2023-02-18T04:50:33;10.49;84.47
66119;DHT22;52912;48.564;9.302;2023-02-18T04:52:59;10.54;84.43
66119;DHT22;52912;48.564;9.302;2023-02-18T04:55:24;10.46;84.60
66119;DHT22;52912;48.564;9.302;2023-02-18T04:57:50;10.42;84.76
66119;DHT22;52912;48.564;9.302;2023-02-18T05:00:18;10.50;84.57
66119;DHT22;52912;48.564;9.302;2023-02-18T05:02:44;10.44;84.73
66119;DHT22;52912;48.564;9.302;2023-02-18T05:05:12;10.49;84.70
66119;DHT22;52912;48.564;9.302;2023-02-18T05:07:37;10.53;84.55
66119;DHT22;52912;48.564;9.302;2023-02-18T05:10:04;10.53;84.64
66119;DHT22;52912;48.564;9.302;2023-02-18T05:12:30;10.49;84.73
66119;DHT22;52912;48.564;9.302;2023-02-18T05:14:55;10.44;84.74
66119;DHT22;52912;48.564;9.302;2023-02-18T05:17:20;10.47;84.80
66119;DHT22;52912;48.564;9.302;2023-02-18T05:19:46;10.40;84.96
66119;DHT22;52912;48.564;9.302;2023-02-18T05:22:13;10.43;84.88
66119;DHT22;52912;48.564;9.302;2023-02-18T05:24:38;10.46;84.83
66119;DHT22;52912;48.564;9.302;2023-02-18T05:27:04;10.44;84.83
66119;DHT22;52912;48.564;9.302;2023-02-18T05:29:29;10.46;84.87
66119;DHT22;52912;48.564;9.302;2023-02-18T05:31:55;10.47;84.76
66119;DHT22;52912;48.564;9.302;2023-02-18T05:34:20;10.44;84.74
66119;DHT22;52912;48.564;9.302;2023-02-18T05:36:45;10.49;84.62
66119;DHT22;52912;48.564;9.302;2023-02-18T05:39:12;10.46;84.65
66119;DHT22;52912;48.564;9.302;2023-02-18T05:41:38;10.50;84.59
66119;DHT22;52912;48.564;9.302;2023-02-18T05:44:03;10.54;84.47
66119;DHT22;52912;48.564;9.302;2023-02-18T05:46:29;10.59;84.42
66119;DHT22;52912;48.564;9.302;2023-02-18T05:48:54;10.59;84.26
66119;DHT22;52912;48.564;9.302;2023-02-18T05:51:20;10.64;84.18
66119;DHT22;52912;48.564;9.302;2023-02-18T05:53:45;10.57;84.37
66119;DHT22;52912;48.564;9.302;2023-02-18T05:56:12;10.56;84.50
66119;DHT22;52912;48.564;9.302;2023-02-18T05:58:37;10.56;84.46
66119;DHT22;52912;48.564;9.302;2023-02-18T06:01:03;10.57;84.30
66119;DHT22;52912;48.564;9.302;2023-02-18T06:03:29;10.57;84.26
66119;DHT22;52912;48.564;9.302;2023-02-18T06:05:54;10.57;84.24
66119;DHT22;52912;48.564;9.302;2023-02-18T06:08:19;10.59;84.25
66119;DHT22;52912;48.564;9.302;2023-02-18T06:10:45;10.59;84.20
66119;DHT22;52912;48.564;9.302;2023-02-18T06:13:12;10.57;84.05
66119;DHT22;52912;48.564;9.302;2023-02-18T06:15:38;10.57;84.09
66119;DHT22;52912;48.564;9.302;2023-02-18T06:18:04;10.53;84.18
66119;DHT22;52912;48.564;9.302;2023-02-18T06:20:30;10.52;84.13
66119;DHT22;52912;48.564;9.302;2023-02-18T06:22:56;10.52;84.18
66119;DHT22;52912;48.564;9.302;2023-02-18T06:25:21;10.53;84.20
66119;DHT22;52912;48.564;9.302;2023-02-18T06:27:46;10.56;84.14
66119;DHT22;52912;48.564;9.302;2023-02-18T06:30:14;10.56;84.12
66119;DHT22;52912;48.564;9.302;2023-02-18T06:32:39;10.59;84.04
66119;DHT22;52912;48.564;9.302;2023-02-18T06:35:05;10.59;84.12
66119;DHT22;52912;48.564;9.302;2023-02-18T06:37:31;10.67;83.99
66119;DHT22;52912;48.564;9.302;2023-02-18T06:39:56;10.67;84.04
66119;DHT22;52912;48.564;9.302;2023-02-18T06:42:22;10.65;84.10
66119;DHT22;52912;48.564;9.302;2023-02-18T06:44:47;10.68;84.17
66119;DHT22;52912;48.564;9.302;2023-02-18T06:47:14;10.72;84.08
66119;DHT22;52912;48.564;9.302;2023-02-18T06:49:40;10.74;84.08
66119;DHT22;52912;48.564;9.302;2023-02-18T06:52:05;10.71;84.36
66119;DHT22;52912;48.564;9.302;2023-02-18T06:54:31;10.74;84.24
66119;DHT22;52912;48.564;9.302;2023-02-18T06:56:57;10.75;84.28
66119;DHT22;52912;48.564;9.302;2023-02-18T06:59:22;10.78;84.31
66119;DHT22;52912;48.564;9.302;2023-02-18T07:01:48;10.84;84.18
66119;DHT22;52912;48.564;9.302;2023-02-18T07:04:15;10.89;84.07
66119;DHT22;52912;48.564;9.302;2023-02-18T07:06:40;10.94;83.93
66119;DHT22;52912;48.564;9.302;2023-02-18T07:09:06;10.94;83.86
66119;DHT22;52912;48.564;9.302;2023-02-18T07:11:31;11.02;83.58
66119;DHT22;52912;48.564;9.302;2023-02-18T07:13:57;11.05;83.54
66119;DHT22;52912;48.564;9.302;2023-02-18T07:16:22;11.04;83.49
66119;DHT22;52912;48.564;9.302;2023-02-18T07:18:48;11.12;83.32
66119;DHT22;52912;48.564;9.302;2023-02-18T07:21:15;11.14;83.32
66119;DHT22;52912;48.564;9.302;2023-02-18T07:23:40;11.23;83.10
66119;DHT22;52912;48.564;9.302;2023-02-18T07:26:07;11.26;83.07
66119;DHT22;52912;48.564;9.302;2023-02-18T07:28:33;11.26;83.10
66119;DHT22;52912;48.564;9.302;2023-02-18T07:30:58;11.27;83.15
66119;DHT22;52912;48.564;9.302;2023-02-18T07:33:24;11.27;83.23
66119;DHT22;52912;48.564;9.302;2023-02-18T07:35:52;11.32;83.08
66119;DHT22;52912;48.564;9.302;2023-02-18T07:38:19;11.33;83.04
66119;DHT22;52912;48.564;9.302;2023-02-18T07:40:44;11.42;82.81
66119;DHT22;52912;48.564;9.302;2023-02-18T07:43:10;11.34;82.87
66119;DHT22;52912;48.564;9.302;2023-02-18T07:45:36;11.40;82.69
66119;DHT22;52912;48.564;9.302;2023-02-18T07:48:02;11.46;82.69
66119;DHT22;52912;48.564;9.302;2023-02-18T07:50:27;11.50;82.46
66119;DHT22;52912;48.564;9.302;2023-02-18T07:52:53;11.54;82.26
66119;DHT22;52912;48.564;9.302;2023-02-18T07:55:20;11.57;82.07
66119;DHT22;52912;48.564;9.302;2023-02-18T07:57:45;11.56;81.93
66119;DHT22;52912;48.564;9.302;2023-02-18T08:00:12;11.59;81.76
66119;DHT22;52912;48.564;9.302;2023-02-18T08:02:37;11.68;81.53
66119;DHT22;52912;48.564;9.302;2023-02-18T08:05:03;11.70;81.39
66119;DHT22;52912;48.564;9.302;2023-02-18T08:07:28;11.74;81.17
66119;DHT22;52912;48.564;9.302;2023-02-18T08:09:54;11.77;80.99
66119;DHT22;52912;48.564;9.302;2023-02-18T08:12:20;11.75;81.14
66119;DHT22;52912;48.564;9.302;2023-02-18T08:14:46;11.74;81.17
66119;DHT22;52912;48.564;9.302;2023-02-18T08:17:11;11.74;81.17
66119;DHT22;52912;48.564;9.302;2023-02-18T08:19:37;11.79;80.77
66119;DHT22;52912;48.564;9.302;2023-02-18T08:22:02;11.81;80.63
66119;DHT22;52912;48.564;9.302;2023-02-18T08:24:28;11.79;80.74
66119;DHT22;52912;48.564;9.302;2023-02-18T08:26:53;11.82;80.51
66119;DHT22;52912;48.564;9.302;2023-02-18T08:29:20;11.85;80.14
66119;DHT22;52912;48.564;9.302;2023-02-18T08:31:45;11.87;80.34
66119;DHT22;52912;48.564;9.302;2023-02-18T08:34:11;11.84;80.44
66119;DHT22;52912;48.564;9.302;2023-02-18T08:36:36;11.84;80.26
66119;DHT22;52912;48.564;9.302;2023-02-18T08:39:02;11.87;80.06
66119;DHT22;52912;48.564;9.302;2023-02-18T08:41:27;11.91;79.88
66119;DHT22;52912;48.564;9.302;2023-02-18T08:43:53;11.95;79.80
66119;DHT22;52912;48.564;9.302;2023-02-18T08:46:20;11.99;79.78
66119;DHT22;52912;48.564;9.302;2023-02-18T08:48:45;11.99;79.63
66119;DHT22;52912;48.564;9.302;2023-02-18T08:51:13;11.98;79.36
66119;DHT22;52912;48.564;9.302;2023-02-18T08:53:38;11.99;79.58
66119;DHT22;52912;48.564;9.302;2023-02-18T08:56:05;12.02;79.46
66119;DHT22;52912;48.564;9.302;2023-02-18T08:58:31;12.02;79.53
66119;DHT22;52912;48.564;9.302;2023-02-18T09:01:00;12.02;79.31
66119;DHT22;52912;48.564;9.302;2023-02-18T09:03:27;12.02;79.15
66119;DHT22;52912;48.564;9.302;2023-02-18T09:05:52;12.06;79.17
66119;DHT22;52912;48.564;9.302;2023-02-18T09:08:18;12.09;79.05
66119;DHT22;52912;48.564;9.302;2023-02-18T09:10:43;12.11;79.06
66119;DHT22;52912;48.564;9.302;2023-02-18T09:13:09;12.04;79.36
66119;DHT22;52912;48.564;9.302;2023-02-18T09:15:34;12.06;79.49
66119;DHT22;52912;48.564;9.302;2023-02-18T09:18:00;12.09;79.20
66119;DHT22;52912;48.564;9.302;2023-02-18T09:20:27;12.01;79.41
66119;DHT22;52912;48.564;9.302;2023-02-18T09:22:52;12.09;79.38
66119;DHT22;52912;48.564;9.302;2023-02-18T09:25:18;12.09;79.33
66119;DHT22;52912;48.564;9.302;2023-02-18T09:27:43;12.08;79.31
66119;DHT22;52912;48.564;9.302;2023-02-18T09:30:09;12.06;79.14
66119;DHT22;52912;48.564;9.302;2023-02-18T09:32:35;12.08;79.16
66119;DHT22;52912;48.564;9.302;2023-02-18T09:35:00;12.18;78.86
66119;DHT22;52912;48.564;9.302;2023-02-18T09:37:27;12.25;78.93
66119;DHT22;52912;48.564;9.302;2023-02-18T09:39:52;12.30;78.59
66119;DHT22;52912;48.564;9.302;2023-02-18T09:42:19;12.34;78.54
66119;DHT22;52912;48.564;9.302;2023-02-18T09:44:51;12.36;78.49
66119;DHT22;52912;48.564;9.302;2023-02-18T09:47:20;12.46;78.33
66119;DHT22;52912;48.564;9.302;2023-02-18T09:49:52;12.46;78.14
66119;DHT22;52912;48.564;9.302;2023-02-18T09:52:21;12.44;78.05
66119;DHT22;52912;48.564;9.302;2023-02-18T09:54:48;12.49;77.96
66119;DHT22;52912;48.564;9.302;2023-02-18T09:57:20;12.47;77.87
66119;DHT22;52912;48.564;9.302;2023-02-18T09:59:47;12.57;77.88
66119;DHT22;52912;48.564;9.302;2023-02-18T10:02:16;12.53;77.79
66119;DHT22;52912;48.564;9.302;2023-02-18T10:04:43;12.65;77.84
66119;DHT22;52912;48.564;9.302;2023-02-18T10:07:17;12.58;77.85
66119;DHT22;52912;48.564;9.302;2023-02-18T10:09:44;12.63;77.91
66119;DHT22;52912;48.564;9.302;2023-02-18T10:12:13;12.63;77.86
66119;DHT22;52912;48.564;9.302;2023-02-18T10:14:40;12.58;78.06
66119;DHT22;52912;48.564;9.302;2023-02-18T10:17:06;12.57;78.17
66119;DHT22;52912;48.564;9.302;2023-02-18T10:19:34;12.63;78.00
66119;DHT22;52912;48.564;9.302;2023-02-18T10:22:03;12.61;78.13
66119;DHT22;52912;48.564;9.302;2023-02-18T10:24:31;12.64;78.25
66119;DHT22;52912;48.564;9.302;2023-02-18T10:26:58;12.68;78.31
66119;DHT22;52912;48.564;9.302;2023-02-18T10:29:26;12.64;78.34
66119;DHT22;52912;48.564;9.302;2023-02-18T10:31:57;12.71;78.36
66119;DHT22;52912;48.564;9.302;2023-02-18T10:34:39;12.69;78.34
66119;DHT22;52912;48.564;9.302;2023-02-18T10:37:10;12.75;78.21
66119;DHT22;52912;48.564;9.302;2023-02-18T10:39:51;12.69;78.38
66119;DHT22;52912;48.564;9.302;2023-02-18T10:42:29;12.67;78.31
66119;DHT22;52912;48.564;9.302;2023-02-18T10:45:06;12.68;78.34
66119;DHT22;52912;48.564;9.302;2023-02-18T10:47:38;12.67;78.45
66119;DHT22;52912;48.564;9.302;2023-02-18T10:50:09;12.63;78.61
66119;DHT22;52912;48.564;9.302;2023-02-18T10:52:40;12.67;78.17
66119;DHT22;52912;48.564;9.302;2023-02-18T10:55:08;12.65;78.36
66119;DHT22;52912;48.564;9.302;2023-02-18T10:57:33;12.63;78.39
66119;DHT22;52912;48.564;9.302;2023-02-18T11:00:05;12.60;78.75
66119;DHT22;52912;48.564;9.302;2023-02-18T11:02:40;12.67;78.52
66119;DHT22;52912;48.564;9.302;2023-02-18T11:05:17;12.65;78.56
66119;DHT22;52912;48.564;9.302;2023-02-18T11:07:47;12.64;78.04
66119;DHT22;52912;48.564;9.302;2023-02-18T11:10:16;12.65;78.09
66119;DHT22;52912;48.564;9.302;2023-02-18T11:12:45;12.65;78.32
66119;DHT22;52912;48.564;9.302;2023-02-18T11:15:20;12.63;78.11
66119;DHT22;52912;48.564;9.302;2023-02-18T11:17:47;12.69;77.97
66119;DHT22;52912;48.564;9.302;2023-02-18T11:20:29;12.74;77.73
66119;DHT22;52912;48.564;9.302;2023-02-18T11:23:12;12.78;77.53
66119;DHT22;52912;48.564;9.302;2023-02-18T11:25:40;12.81;77.18
66119;DHT22;52912;48.564;9.302;2023-02-18T11:28:26;12.84;77.15
66119;DHT22;52912;48.564;9.302;2023-02-18T11:30:56;12.80;77.27
66119;DHT22;52912;48.564;9.302;2023-02-18T11:33:30;12.78;77.34
66119;DHT22;52912;48.564;9.302;2023-02-18T11:35:57;12.83;77.32
66119;DHT22;52912;48.564;9.302;2023-02-18T11:38:28;12.88;77.03
66119;DHT22;52912;48.564;9.302;2023-02-18T11:41:02;12.89;76.90
66119;DHT22;52912;48.564;9.302;2023-02-18T11:43:33;12.85;76.70
66119;DHT22;52912;48.564;9.302;2023-02-18T11:46:11;12.96;76.74
66119;DHT22;52912;48.564;9.302;2023-02-18T11:48:37;12.99;76.41
66119;DHT22;52912;48.564;9.302;2023-02-18T11:51:03;13.06;76.58
66119;DHT22;52912;48.564;9.302;2023-02-18T11:53:31;13.19;75.92
66119;DHT22;52912;48.564;9.302;2023-02-18T11:56:00;13.23;75.53
66119;DHT22;52912;48.564;9.302;2023-02-18T11:58:27;13.39;75.15
66119;DHT22;52912;48.564;9.302;2023-02-18T12:00:59;13.33;74.79
66119;DHT22;52912;48.564;9.302;2023-02-18T12:03:32;13.30;74.98
66119;DHT22;52912;48.564;9.302;2023-02-18T12:06:03;13.36;74.87
66119;DHT22;52912;48.564;9.302;2023-02-18T12:08:32;13.40;74.94
66119;DHT22;52912;48.564;9.302;2023-02-18T12:11:01;13.39;74.79
66119;DHT22;52912;48.564;9.302;2023-02-18T12:13:32;13.32;74.73
66119;DHT22;52912;48.564;9.302;2023-02-18T12:16:06;13.35;74.78
66119;DHT22;52912;48.564;9.302;2023-02-18T12:18:53;13.39;74.60
66119;DHT22;52912;48.564;9.302;2023-02-18T12:21:27;13.40;74.82
66119;DHT22;52912;48.564;9.302;2023-02-18T12:23:58;13.44;74.66
66119;DHT22;52912;48.564;9.302;2023-02-18T12:26:28;13.47;74.61
66119;DHT22;52912;48.564;9.302;2023-02-18T12:29:08;13.44;74.42
66119;DHT22;52912;48.564;9.302;2023-02-18T12:31:51;13.37;74.42
66119;DHT22;52912;48.564;9.302;2023-02-18T12:34:33;13.32;74.75
66119;DHT22;52912;48.564;9.302;2023-02-18T12:37:09;13.20;74.29
66119;DHT22;52912;48.564;9.302;2023-02-18T12:39:53;13.24;74.24
66119;DHT22;52912;48.564;9.302;2023-02-18T12:42:36;13.30;73.44
66119;DHT22;52912;48.564;9.302;2023-02-18T12:45:23;13.43;73.28
66119;DHT22;52912;48.564;9.302;2023-02-18T12:48:01;13.39;73.39
66119;DHT22;52912;48.564;9.302;2023-02-18T12:50:55;13.56;73.37
66119;DHT22;52912;48.564;9.302;2023-02-18T12:53:35;13.67;73.21
66119;DHT22;52912;48.564;9.302;2023-02-18T12:59:04;13.63;72.73
66119;DHT22;52912;48.564;9.302;2023-02-18T13:01:40;13.51;72.43
66119;DHT22;52912;48.564;9.302;2023-02-18T13:04:36;13.60;72.63
66119;DHT22;52912;48.564;9.302;2023-02-18T13:07:19;13.73;72.36
66119;DHT22;52912;48.564;9.302;2023-02-18T13:10:05;13.67;72.63
66119;DHT22;52912;48.564;9.302;2023-02-18T13:12:39;13.82;72.02
66119;DHT22;52912;48.564;9.302;2023-02-18T13:15:13;13.65;72.55
66119;DHT22;52912;48.564;9.302;2023-02-18T13:17:42;13.64;72.76
66119;DHT22;52912;48.564;9.302;2023-02-18T13:20:13;13.85;72.02
66119;DHT22;52912;48.564;9.302;2023-02-18T13:22:43;13.78;72.22
66119;DHT22;52912;48.564;9.302;2023-02-18T13:25:11;13.88;71.95
66119;DHT22;52912;48.564;9.302;2023-02-18T13:27:40;14.22;71.33
66119;DHT22;52912;48.564;9.302;2023-02-18T13:30:17;14.56;70.20
66119;DHT22;52912;48.564;9.302;2023-02-18T13:32:53;14.54;70.04
66119;DHT22;52912;48.564;9.302;2023-02-18T13:35:24;14.87;69.25
66119;DHT22;52912;48.564;9.302;2023-02-18T13:37:54;15.19;68.33
66119;DHT22;52912;48.564;9.302;2023-02-18T13:40:24;15.30;68.37
66119;DHT22;52912;48.564;9.302;2023-02-18T13:42:51;15.12;68.90
66119;DHT22;52912;48.564;9.302;2023-02-18T13:45:28;14.93;69.03
66119;DHT22;52912;48.564;9.302;2023-02-18T13:47:55;14.72;69.10
66119;DHT22;52912;48.564;9.302;2023-02-18T13:50:39;14.59;69.53
66119;DHT22;52912;48.564;9.302;2023-02-18T13:53:22;14.46;69.77
66119;DHT22;52912;48.564;9.302;2023-02-18T13:56:00;14.43;70.04
66119;DHT22;52912;48.564;9.302;2023-02-18T13:58:30;14.34;70.33
66119;DHT22;52912;48.564;9.302;2023-02-18T14:01:01;14.41;70.09
66119;DHT22;52912;48.564;9.302;2023-02-18T14:03:35;14.37;70.03
66119;DHT22;52912;48.564;9.302;2023-02-18T14:06:12;14.22;70.05
66119;DHT22;52912;48.564;9.302;2023-02-18T14:08:39;14.20;70.00
66119;DHT22;52912;48.564;9.302;2023-02-18T14:11:24;14.18;70.18
66119;DHT22;52912;48.564;9.302;2023-02-18T14:13:53;14.18;69.62
66119;DHT22;52912;48.564;9.302;2023-02-18T14:16:19;14.10;69.29
66119;DHT22;52912;48.564;9.302;2023-02-18T14:18:57;14.13;69.40
66119;DHT22;52912;48.564;9.302;2023-02-18T14:21:41;14.08;69.10
66119;DHT22;52912;48.564;9.302;2023-02-18T14:24:09;14.15;68.80
66119;DHT22;52912;48.564;9.302;2023-02-18T14:26:39;14.10;68.46
66119;DHT22;52912;48.564;9.302;2023-02-18T14:29:13;13.99;68.27
66119;DHT22;52912;48.564;9.302;2023-02-18T14:32:00;13.91;68.34
66119;DHT22;52912;48.564;9.302;2023-02-18T14:34:59;13.88;68.62
66119;DHT22;52912;48.564;9.302;2023-02-18T14:38:01;13.82;68.86
66119;DHT22;52912;48.564;9.302;2023-02-18T14:40:45;13.78;69.39
66119;DHT22;52912;48.564;9.302;2023-02-18T14:43:24;13.98;68.75
66119;DHT22;52912;48.564;9.302;2023-02-18T14:46:12;13.84;68.29
66119;DHT22;52912;48.564;9.302;2023-02-18T14:48:54;13.82;68.57
66119;DHT22;52912;48.564;9.302;2023-02-18T14:51:27;13.85;68.85
66119;DHT22;52912;48.564;9.302;2023-02-18T14:53:53;13.88;69.10
66119;DHT22;52912;48.564;9.302;2023-02-18T14:56:21;13.79;69.37
66119;DHT22;52912;48.564;9.302;2023-02-18T14:58:49;13.73;69.09
66119;DHT22;52912;48.564;9.302;2023-02-18T15:01:17;13.67;69.60
66119;DHT22;52912;48.564;9.302;2023-02-18T15:03:43;13.64;68.24
66119;DHT22;52912;48.564;9.302;2023-02-18T15:06:22;13.60;68.39
66119;DHT22;52912;48.564;9.302;2023-02-18T15:08:47;13.60;68.35
66119;DHT22;52912;48.564;9.302;2023-02-18T15:11:13;13.63;68.69
66119;DHT22;52912;48.564;9.302;2023-02-18T15:13:43;13.60;69.07
66119;DHT22;52912;48.564;9.302;2023-02-18T15:16:14;13.63;69.18
66119;DHT22;52912;48.564;9.302;2023-02-18T15:18:42;13.60;69.77
66119;DHT22;52912;48.564;9.302;2023-02-18T15:21:15;13.61;69.70
66119;DHT22;52912;48.564;9.302;2023-02-18T15:23:45;13.64;70.15
66119;DHT22;52912;48.564;9.302;2023-02-18T15:26:12;13.63;70.77
66119;DHT22;52912;48.564;9.302;2023-02-18T15:28:50;13.64;70.68
66119;DHT22;52912;48.564;9.302;2023-02-18T15:31:16;13.61;71.20
66119;DHT22;52912;48.564;9.302;2023-02-18T15:33:42;13.63;70.57
66119;DHT22;52912;48.564;9.302;2023-02-18T15:36:12;13.57;70.98
66119;DHT22;52912;48.564;9.302;2023-02-18T15:38:38;13.60;71.35
66119;DHT22;52912;48.564;9.302;2023-02-18T15:41:09;13.56;71.61
66119;DHT22;52912;48.564;9.302;2023-02-18T15:43:35;13.50;71.88
66119;DHT22;52912;48.564;9.302;2023-02-18T15:46:09;13.43;72.00
66119;DHT22;52912;48.564;9.302;2023-02-18T15:48:42;13.42;72.43
66119;DHT22;52912;48.564;9.302;2023-02-18T15:51:11;13.46;72.43
66119;DHT22;52912;48.564;9.302;2023-02-18T15:53:38;13.42;71.95
66119;DHT22;52912;48.564;9.302;2023-02-18T15:56:06;13.40;72.23